Time;durP1;ratioP1;P1;durP2;ratioP2;P2;SDS_P1;SDS_P2;PMS_P1;PMS_P2;Temp;Humidity;BMP_temperature;BMP_pressure;BME280_temperature;BME280_humidity;BME280_pressure;Samples;Min_cycle;Max_cycle;Signal;HPM_P1;HPM_P2
2024/01/23 00:01:02;;;;;;;5.20;2.70;;;;;;;2.12;69.74;96747.92;108801;1266;24296;-81
2024/01/23 00:03:50;;;;;;;4.90;2.50;;;;;;;2.01;70.30;96760.44;108681;1272;22663;-81
2024/01/23 00:06:22;;;;;;;3.70;2.30;;;;;;;1.93;70.78;96759.17;108782;1272;22521;-81
2024/01/23 00:08:57;;;;;;;7.50;3.00;;;;;;;1.88;70.44;96767.20;108807;1273;22566;-81
2024/01/23 00:11:31;;;;;;;4.70;2.90;;;;;;;1.90;71.17;96764.63;108752;1269;22518;-81
2024/01/23 00:14:03;;;;;;;4.80;2.60;;;;;;;1.98;70.74;96769.26;108791;1273;22632;-82
2024/01/23 00:16:35;;;;;;;3.60;2.00;;;;;;;2.04;70.21;96773.23;108804;1273;22539;-81
2024/01/23 00:19:06;;;;;;;5.10;3.00;;;;;;;2.15;70.29;96771.74;108841;1269;24214;-82
2024/01/23 00:21:42;;;;;;;5.20;2.60;;;;;;;2.24;70.31;96772.79;108795;1271;22566;-82
2024/01/23 00:24:15;;;;;;;3.70;2.80;;;;;;;2.30;70.03;96770.74;108766;1272;22517;-81
2024/01/23 00:26:49;;;;;;;4.40;3.00;;;;;;;2.36;69.73;96769.52;108800;1266;22591;-81
2024/01/23 00:29:20;;;;;;;3.20;2.40;;;;;;;2.40;69.40;96770.34;108811;1269;23976;-82
2024/01/23 00:31:51;;;;;;;5.20;3.00;;;;;;;2.42;69.42;96765.04;108778;1272;22524;-81
2024/01/23 00:34:25;;;;;;;5.10;2.60;;;;;;;2.44;69.04;96776.27;108805;1273;22531;-81
2024/01/23 00:36:55;;;;;;;3.50;2.30;;;;;;;2.46;68.98;96770.00;108818;1272;22525;-81
2024/01/23 00:39:29;;;;;;;3.20;2.30;;;;;;;2.49;68.92;96769.44;108780;1269;22540;-81
2024/01/23 00:42:07;;;;;;;2.50;1.80;;;;;;;2.50;68.97;96768.41;108764;1272;25223;-81
2024/01/23 00:44:39;;;;;;;5.40;2.60;;;;;;;2.52;68.81;96773.98;108765;1272;22536;-81
2024/01/23 00:47:15;;;;;;;3.80;2.30;;;;;;;2.52;68.20;96776.06;108797;1273;24028;-81
2024/01/23 00:49:47;;;;;;;6.00;2.80;;;;;;;2.53;67.97;96768.69;108736;1272;23299;-81
2024/01/23 00:52:21;;;;;;;3.70;2.60;;;;;;;2.52;67.78;96774.70;108757;1274;22586;-81
2024/01/23 00:54:52;;;;;;;6.00;2.90;;;;;;;2.54;67.34;96777.06;108756;1274;23754;-81
2024/01/23 00:57:25;;;;;;;3.90;2.30;;;;;;;2.61;67.24;96780.58;108727;1274;24026;-82
2024/01/23 00:59:56;;;;;;;4.20;2.40;;;;;;;2.67;68.07;96783.31;108749;1273;23763;-82
2024/01/23 01:02:28;;;;;;;4.50;2.70;;;;;;;2.68;68.49;96779.92;108718;1257;22660;-81
2024/01/23 01:05:02;;;;;;;6.60;3.40;;;;;;;2.63;68.76;96772.94;108732;1273;22528;-81
2024/01/23 01:07:33;;;;;;;5.40;3.00;;;;;;;2.49;69.19;96777.08;108744;1274;22511;-81
2024/01/23 01:10:05;;;;;;;4.30;2.60;;;;;;;2.32;69.38;96774.52;108736;1274;22572;-81
2024/01/23 01:12:40;;;;;;;6.20;2.90;;;;;;;2.18;69.87;96780.71;108764;1274;22599;-80
2024/01/23 01:15:15;;;;;;;5.70;3.20;;;;;;;2.11;70.20;96778.80;108761;1272;22524;-80
2024/01/23 01:17:48;;;;;;;7.00;3.30;;;;;;;2.03;71.75;96783.35;108784;1274;27064;-80
2024/01/23 01:20:20;;;;;;;4.20;2.20;;;;;;;1.96;71.93;96776.55;108739;1272;25424;-80
2024/01/23 01:22:53;;;;;;;4.80;3.00;;;;;;;1.90;73.52;96780.69;108853;1273;22536;-79
2024/01/23 01:25:25;;;;;;;5.00;3.10;;;;;;;1.84;74.86;96793.31;108850;1274;22523;-79
2024/01/23 01:28:00;;;;;;;5.70;3.60;;;;;;;1.73;75.41;96794.02;108806;1274;25268;-79
2024/01/23 01:30:34;;;;;;;3.80;2.30;;;;;;;1.63;75.42;96799.30;108755;1274;25263;-79
2024/01/23 01:33:06;;;;;;;6.30;3.60;;;;;;;1.56;75.68;96805.05;108739;1274;22532;-80
2024/01/23 01:35:37;;;;;;;9.20;3.80;;;;;;;1.54;75.93;96802.86;108774;1274;25288;-80
2024/01/23 01:38:10;;;;;;;4.90;3.20;;;;;;;1.54;76.02;96802.41;108756;1274;22605;-81
2024/01/23 01:40:43;;;;;;;5.20;2.60;;;;;;;1.55;76.33;96798.12;108737;1274;22570;-80
2024/01/23 01:43:26;;;;;;;4.80;3.10;;;;;;;1.56;76.52;96799.63;108741;1274;22527;-80
2024/01/23 01:46:17;;;;;;;7.20;3.50;;;;;;;1.58;76.63;96800.73;108764;1274;22569;-80
2024/01/23 01:48:54;;;;;;;6.00;3.40;;;;;;;1.58;76.52;96803.87;108794;1272;22710;-80
2024/01/23 01:51:29;;;;;;;5.30;3.50;;;;;;;1.57;76.72;96804.41;108768;1273;22521;-80
2024/01/23 01:54:02;;;;;;;6.40;4.10;;;;;;;1.51;76.75;96807.18;108802;1272;22513;-80
2024/01/23 01:56:36;;;;;;;6.70;4.10;;;;;;;1.42;77.06;96801.29;108832;1266;25431;-80
2024/01/23 01:59:11;;;;;;;8.40;4.70;;;;;;;1.31;77.22;96794.64;108826;1272;22990;-81
2024/01/23 02:01:45;;;;;;;5.90;3.30;;;;;;;1.22;77.53;96799.25;108798;1272;24997;-80
2024/01/23 02:04:17;;;;;;;9.10;4.40;;;;;;;1.16;77.88;96793.40;108802;1273;25316;-80
2024/01/23 02:06:49;;;;;;;7.10;4.00;;;;;;;1.12;77.94;96791.41;108823;1264;23348;-80
2024/01/23 02:09:22;;;;;;;6.50;3.90;;;;;;;1.12;78.29;96791.61;108773;1266;22528;-80
2024/01/23 02:12:06;;;;;;;6.10;3.60;;;;;;;1.10;78.62;96781.60;108701;1270;22616;-80
2024/01/23 02:14:40;;;;;;;6.30;3.30;;;;;;;1.03;79.36;96785.83;108817;1270;22538;-80
2024/01/23 02:17:13;;;;;;;4.70;3.30;;;;;;;0.99;80.57;96786.48;108798;1272;22518;-80
2024/01/23 02:19:44;;;;;;;7.20;4.10;;;;;;;0.98;81.08;96786.19;108795;1272;22533;-78
2024/01/23 02:22:16;;;;;;;7.60;4.30;;;;;;;0.98;81.37;96781.73;108788;1250;22513;-80
2024/01/23 02:24:47;;;;;;;6.70;3.60;;;;;;;0.98;81.69;96782.33;108827;1273;22532;-80
2024/01/23 02:27:18;;;;;;;6.40;3.80;;;;;;;1.01;81.87;96777.88;108812;1273;23004;-80
2024/01/23 02:29:52;;;;;;;6.30;4.30;;;;;;;1.03;81.80;96776.11;108780;1272;22529;-80
2024/01/23 02:32:26;;;;;;;7.40;4.40;;;;;;;1.05;82.46;96775.65;108823;1272;22534;-80
2024/01/23 02:35:04;;;;;;;6.90;3.90;;;;;;;1.08;82.53;96774.05;108862;1266;22517;-80
2024/01/23 02:37:37;;;;;;;6.70;3.70;;;;;;;1.08;82.70;96771.20;108794;1263;25180;-80
2024/01/23 02:40:12;;;;;;;7.40;3.80;;;;;;;1.09;83.01;96771.48;108793;1267;26729;-80
2024/01/23 02:42:46;;;;;;;3.60;2.50;;;;;;;1.10;83.64;96766.04;108816;1272;25411;-80
2024/01/23 02:45:18;;;;;;;6.60;4.00;;;;;;;1.07;84.23;96766.20;108789;1267;22518;-80
2024/01/23 02:47:51;;;;;;;6.40;4.10;;;;;;;1.04;84.74;96766.23;108810;1267;22525;-80
2024/01/23 02:50:23;;;;;;;5.60;3.80;;;;;;;1.02;84.99;96767.61;108802;1273;23618;-80
2024/01/23 02:52:56;;;;;;;7.00;4.40;;;;;;;1.02;85.30;96757.25;108791;1267;22562;-80
2024/01/23 02:55:30;;;;;;;7.90;3.70;;;;;;;1.04;85.28;96761.44;108849;1269;22574;-80
2024/01/23 02:58:01;;;;;;;9.00;4.00;;;;;;;1.06;86.50;96769.42;108831;1272;24224;-80
2024/01/23 03:00:39;;;;;;;11.40;3.80;;;;;;;1.05;87.00;96761.52;108765;1272;25211;-80
2024/01/23 03:03:11;;;;;;;8.10;4.90;;;;;;;1.05;86.80;96761.35;108763;1273;22532;-80
2024/01/23 03:05:42;;;;;;;5.70;3.60;;;;;;;1.07;86.70;96761.30;108780;1270;25297;-80
2024/01/23 03:08:13;;;;;;;5.70;3.60;;;;;;;1.10;87.03;96757.73;108778;1268;24692;-80
2024/01/23 03:10:47;;;;;;;4.90;3.30;;;;;;;1.10;87.55;96766.52;108784;1273;22554;-80
2024/01/23 03:13:23;;;;;;;4.90;3.40;;;;;;;1.08;87.76;96764.37;108822;1272;22987;-81
2024/01/23 03:15:59;;;;;;;4.40;2.90;;;;;;;1.08;88.12;96761.12;108808;1273;22633;-81
2024/01/23 03:18:35;;;;;;;5.60;3.60;;;;;;;1.11;89.20;96760.45;108810;1273;22603;-81
2024/01/23 03:21:08;;;;;;;6.50;3.10;;;;;;;1.14;89.09;96762.85;108810;1260;22666;-81
2024/01/23 03:23:39;;;;;;;5.80;3.40;;;;;;;1.19;89.78;96767.95;108822;1272;22519;-81
2024/01/23 03:26:15;;;;;;;4.70;2.40;;;;;;;1.22;89.81;96767.40;108829;1272;25428;-81
2024/01/23 03:28:50;;;;;;;4.00;2.40;;;;;;;1.26;90.22;96762.85;108801;1272;22526;-81
2024/01/23 03:31:22;;;;;;;4.00;2.70;;;;;;;1.25;90.85;96765.55;108811;1263;25554;-81
2024/01/23 03:33:56;;;;;;;5.20;3.00;;;;;;;1.26;90.86;96772.61;108824;1267;22538;-81
2024/01/23 03:36:34;;;;;;;5.00;2.80;;;;;;;1.27;90.80;96770.99;108826;1273;23844;-81
2024/01/23 03:39:07;;;;;;;4.20;2.50;;;;;;;1.29;90.35;96772.44;108804;1273;22517;-81
2024/01/23 03:41:44;;;;;;;4.20;2.70;;;;;;;1.32;90.84;96770.88;108737;1273;22545;-82
2024/01/23 03:44:15;;;;;;;5.30;2.90;;;;;;;1.33;90.68;96777.55;108815;1273;22945;-82
2024/01/23 03:46:46;;;;;;;4.90;3.30;;;;;;;1.32;90.60;96771.32;108791;1272;22918;-81
2024/01/23 03:49:17;;;;;;;3.20;2.10;;;;;;;1.33;91.70;96763.31;108819;1266;25252;-81
2024/01/23 03:51:48;;;;;;;5.70;3.60;;;;;;;1.32;92.12;96766.83;108705;1269;22535;-81
2024/01/23 03:54:19;;;;;;;5.60;3.10;;;;;;;1.30;91.99;96774.55;108812;1272;24209;-81
2024/01/23 03:56:50;;;;;;;4.70;2.50;;;;;;;1.30;92.04;96773.23;108809;1273;22640;-81
2024/01/23 03:59:26;;;;;;;4.30;2.80;;;;;;;1.29;92.40;96774.89;108789;1272;23852;-81
2024/01/23 04:01:56;;;;;;;7.60;4.70;;;;;;;1.28;92.16;96769.19;108757;1264;23574;-81
2024/01/23 04:04:33;;;;;;;7.90;4.20;;;;;;;1.27;92.96;96770.17;108799;1273;22515;-81
2024/01/23 04:07:04;;;;;;;5.20;3.50;;;;;;;1.25;93.28;96776.20;108796;1268;22523;-81
2024/01/23 04:09:36;;;;;;;6.30;4.20;;;;;;;1.21;93.02;96781.30;108795;1266;22559;-81
2024/01/23 04:12:10;;;;;;;6.60;3.90;;;;;;;1.17;92.91;96784.06;108807;1273;24059;-81
2024/01/23 04:14:45;;;;;;;8.60;4.70;;;;;;;1.14;93.20;96784.18;108801;1270;22551;-81
2024/01/23 04:17:17;;;;;;;5.10;3.50;;;;;;;1.10;93.15;96788.61;108835;1273;22552;-81
2024/01/23 04:19:51;;;;;;;6.40;3.80;;;;;;;1.10;93.33;96798.77;108831;1266;23381;-81
2024/01/23 04:22:22;;;;;;;5.60;3.70;;;;;;;1.10;93.25;96799.46;108817;1272;26448;-81
2024/01/23 04:24:59;;;;;;;7.20;3.90;;;;;;;1.11;93.14;96800.66;108773;1267;22533;-81
2024/01/23 04:27:35;;;;;;;5.90;3.30;;;;;;;1.13;92.82;96798.37;108861;1267;23016;-81
2024/01/23 04:30:10;;;;;;;5.40;3.60;;;;;;;1.15;93.11;96794.58;108775;1273;25300;-81
2024/01/23 04:32:46;;;;;;;5.80;3.90;;;;;;;1.15;93.37;96792.97;108815;1267;24241;-81
2024/01/23 04:35:17;;;;;;;6.00;3.60;;;;;;;1.16;93.11;96799.27;108787;1267;22540;-81
2024/01/23 04:37:48;;;;;;;5.60;3.30;;;;;;;1.19;93.52;96794.63;108807;1272;23105;-81
2024/01/23 04:40:20;;;;;;;7.50;4.00;;;;;;;1.21;93.93;96797.34;108793;1273;24272;-81
2024/01/23 04:42:55;;;;;;;6.40;4.20;;;;;;;1.18;93.74;96798.80;108805;1273;22541;-81
2024/01/23 04:45:32;;;;;;;7.90;4.00;;;;;;;1.20;93.92;96801.04;108828;1272;22514;-81
2024/01/23 04:48:03;;;;;;;6.50;4.20;;;;;;;1.23;94.52;96801.09;108801;1271;23052;-81
2024/01/23 04:50:35;;;;;;;7.00;4.50;;;;;;;1.24;94.36;96795.70;108833;1273;22561;-81
2024/01/23 04:53:06;;;;;;;7.40;4.90;;;;;;;1.25;94.03;96803.84;108782;1267;23863;-81
2024/01/23 04:55:38;;;;;;;6.50;4.10;;;;;;;1.26;93.83;96804.77;108781;1272;25447;-81
2024/01/23 04:58:12;;;;;;;5.80;3.60;;;;;;;1.31;93.67;96805.13;108805;1273;22662;-81
2024/01/23 05:00:43;;;;;;;8.20;4.60;;;;;;;1.36;93.40;96804.27;108777;1272;22520;-81
2024/01/23 05:03:17;;;;;;;5.20;3.70;;;;;;;1.40;93.32;96801.41;108785;1268;22519;-81
2024/01/23 05:05:50;;;;;;;5.70;3.90;;;;;;;1.46;92.90;96808.77;108814;1272;27080;-81
2024/01/23 05:08:25;;;;;;;6.80;4.00;;;;;;;1.50;92.92;96805.17;108839;1272;24092;-81
2024/01/23 05:10:58;;;;;;;6.80;3.70;;;;;;;1.51;92.67;96807.19;108781;1267;23879;-81
2024/01/23 05:13:30;;;;;;;6.90;3.30;;;;;;;1.48;93.04;96806.05;108833;1272;22569;-81
2024/01/23 05:16:00;;;;;;;6.80;4.10;;;;;;;1.46;93.39;96809.13;108862;1267;25243;-81
2024/01/23 05:18:32;;;;;;;8.00;4.30;;;;;;;1.42;93.61;96805.59;108838;1272;22527;-81
2024/01/23 05:21:06;;;;;;;7.00;4.40;;;;;;;1.40;93.63;96811.79;108841;1272;22532;-81
2024/01/23 05:23:37;;;;;;;6.70;4.40;;;;;;;1.39;93.36;96817.48;108824;1264;22546;-81
2024/01/23 05:26:09;;;;;;;5.50;3.80;;;;;;;1.42;93.65;96813.95;108858;1272;22565;-81
2024/01/23 05:28:43;;;;;;;8.10;4.60;;;;;;;1.37;93.45;96815.55;108833;1272;22531;-81
2024/01/23 05:31:14;;;;;;;8.50;4.90;;;;;;;1.32;93.76;96811.18;108817;1267;22522;-81
2024/01/23 05:33:47;;;;;;;7.90;4.20;;;;;;;1.27;93.52;96810.86;108852;1265;22528;-81
2024/01/23 05:36:20;;;;;;;7.60;4.60;;;;;;;1.26;93.33;96821.15;108794;1272;23217;-81
2024/01/23 05:38:51;;;;;;;8.40;5.40;;;;;;;1.26;93.24;96823.19;108835;1272;26573;-81
2024/01/23 05:41:22;;;;;;;8.60;4.80;;;;;;;1.27;92.98;96822.40;108801;1272;22547;-81
2024/01/23 05:43:57;;;;;;;6.20;4.60;;;;;;;1.27;92.75;96832.07;108844;1267;22525;-81
2024/01/23 05:46:28;;;;;;;7.60;5.10;;;;;;;1.30;92.58;96827.20;108821;1272;24273;-81
2024/01/23 05:49:02;;;;;;;6.50;4.30;;;;;;;1.32;92.78;96831.91;108797;1272;22538;-81
2024/01/23 05:51:39;;;;;;;8.50;4.90;;;;;;;1.34;92.60;96833.70;108823;1257;24681;-81
2024/01/23 05:54:10;;;;;;;8.90;5.20;;;;;;;1.33;92.62;96833.14;108815;1270;22973;-81
2024/01/23 05:56:41;;;;;;;8.40;4.70;;;;;;;1.30;92.44;96830.13;108804;1266;22568;-81
2024/01/23 05:59:12;;;;;;;6.90;4.30;;;;;;;1.27;92.44;96832.19;108821;1272;24218;-81
2024/01/23 06:01:43;;;;;;;9.60;5.80;;;;;;;1.24;92.88;96838.23;108807;1266;22531;-81
2024/01/23 06:04:15;;;;;;;9.50;6.00;;;;;;;1.24;93.18;96841.93;108832;1270;22627;-81
2024/01/23 06:06:50;;;;;;;10.00;5.80;;;;;;;1.24;92.90;96835.30;108831;1265;22549;-81
2024/01/23 06:09:24;;;;;;;9.90;4.60;;;;;;;1.25;93.31;96836.53;108791;1267;22634;-81
2024/01/23 06:11:54;;;;;;;11.10;6.60;;;;;;;1.25;93.35;96836.02;108794;1272;25410;-81
2024/01/23 06:14:29;;;;;;;10.10;5.50;;;;;;;1.27;93.30;96842.11;108833;1267;22527;-81
2024/01/23 06:17:00;;;;;;;7.90;5.30;;;;;;;1.28;93.37;96848.39;108827;1266;22520;-81
2024/01/23 06:19:35;;;;;;;9.20;4.20;;;;;;;1.28;93.13;96854.05;108830;1269;23006;-81
2024/01/23 06:22:10;;;;;;;9.30;5.00;;;;;;;1.29;93.09;96852.85;108778;1269;22563;-82
2024/01/23 06:24:41;;;;;;;10.90;6.80;;;;;;;1.28;92.95;96850.12;108847;1272;22564;-80
2024/01/23 06:27:13;;;;;;;8.40;5.40;;;;;;;1.26;92.68;96844.05;108869;1269;22533;-81
2024/01/23 06:29:45;;;;;;;7.90;4.70;;;;;;;1.26;92.74;96853.84;108912;1272;22517;-80
2024/01/23 06:32:19;;;;;;;10.60;6.20;;;;;;;1.26;92.69;96855.25;108836;1272;23848;-81
2024/01/23 06:34:52;;;;;;;9.80;6.10;;;;;;;1.28;92.50;96860.23;108821;1267;22558;-80
2024/01/23 06:37:24;;;;;;;9.40;6.00;;;;;;;1.29;92.33;96855.94;108830;1272;24269;-81
2024/01/23 06:39:57;;;;;;;10.30;5.40;;;;;;;1.28;92.12;96867.87;108775;1273;22523;-80
2024/01/23 06:42:29;;;;;;;9.10;5.90;;;;;;;1.29;92.18;96863.77;108772;1269;24224;-81
2024/01/23 06:45:00;;;;;;;10.50;6.30;;;;;;;1.30;92.23;96863.04;108807;1273;22524;-81
2024/01/23 06:47:35;;;;;;;10.30;7.20;;;;;;;1.30;92.13;96861.55;108828;1270;23986;-81
2024/01/23 06:50:13;;;;;;;10.10;6.30;;;;;;;1.31;92.06;96873.39;108789;1273;22510;-81
2024/01/23 06:52:45;;;;;;;7.40;4.40;;;;;;;1.38;92.26;96884.17;108774;1273;22060;-81
2024/01/23 06:55:18;;;;;;;10.50;6.50;;;;;;;1.44;92.03;96884.10;108805;1266;23883;-81
2024/01/23 06:57:50;;;;;;;10.60;6.50;;;;;;;1.46;91.82;96895.24;108791;1270;24148;-81
2024/01/23 07:00:26;;;;;;;8.80;4.40;;;;;;;1.50;92.08;96899.60;108790;1273;22530;-81
2024/01/23 07:02:57;;;;;;;10.70;6.60;;;;;;;1.54;92.10;96908.48;108809;1273;22567;-81
2024/01/23 07:05:29;;;;;;;9.80;5.90;;;;;;;1.60;92.15;96910.17;108844;1257;22521;-81
2024/01/23 07:08:00;;;;;;;8.60;5.40;;;;;;;1.70;92.01;96918.89;108874;1271;22904;-82
2024/01/23 07:10:31;;;;;;;11.60;6.50;;;;;;;1.81;91.69;96921.88;108786;1267;25424;-81
2024/01/23 07:13:04;;;;;;;10.10;6.70;;;;;;;1.87;91.43;96921.25;108836;1273;26433;-81
2024/01/23 07:15:38;;;;;;;10.10;6.70;;;;;;;1.93;91.34;96924.27;108797;1266;22521;-80
2024/01/23 07:18:11;;;;;;;12.60;6.80;;;;;;;1.97;91.13;96918.96;108819;1266;22521;-80
2024/01/23 07:20:49;;;;;;;11.00;6.80;;;;;;;2.09;91.13;96924.65;108800;1273;23885;-81
2024/01/23 07:23:23;;;;;;;9.00;6.50;;;;;;;2.14;90.77;96926.50;108788;1273;22585;-80
2024/01/23 07:25:54;;;;;;;9.40;6.50;;;;;;;2.12;90.52;96927.36;108792;1272;24246;-81
2024/01/23 07:28:27;;;;;;;11.30;7.40;;;;;;;2.19;90.36;96927.64;108838;1272;22525;-81
2024/01/23 07:31:00;;;;;;;8.40;5.30;;;;;;;2.34;90.37;96924.87;108788;1273;23746;-80
2024/01/23 07:33:32;;;;;;;11.00;6.50;;;;;;;2.38;90.08;96937.50;108808;1273;22533;-80
2024/01/23 07:36:08;;;;;;;8.00;5.30;;;;;;;2.38;89.78;96947.08;108865;1273;22538;-81
2024/01/23 07:38:51;;;;;;;9.50;6.40;;;;;;;2.36;89.72;96946.91;108803;1265;22531;-81
2024/01/23 07:41:27;;;;;;;10.50;6.50;;;;;;;2.39;89.79;96946.80;108787;1266;28533;-81
2024/01/23 07:44:02;;;;;;;10.40;6.90;;;;;;;2.65;90.07;96953.17;108835;1266;25460;-81
2024/01/23 07:46:38;;;;;;;9.70;6.30;;;;;;;3.10;89.95;96955.14;108783;1267;22527;-82
2024/01/23 07:49:11;;;;;;;9.60;6.80;;;;;;;3.49;89.38;96950.31;108838;1272;22659;-82
2024/01/23 07:51:50;;;;;;;9.30;5.70;;;;;;;3.63;88.41;96955.89;108767;1273;22565;-81
2024/01/23 07:54:22;;;;;;;10.40;5.70;;;;;;;3.54;87.49;96953.30;108789;1272;22633;-81
2024/01/23 07:56:54;;;;;;;10.60;5.10;;;;;;;3.49;86.99;96960.91;108785;1266;24856;-81
2024/01/23 07:59:25;;;;;;;12.00;7.40;;;;;;;3.61;86.85;96955.48;108789;1273;22566;-81
2024/01/23 08:02:00;;;;;;;13.30;6.20;;;;;;;3.54;86.13;96952.28;108783;1273;23993;-81
2024/01/23 08:04:31;;;;;;;10.70;7.00;;;;;;;3.55;85.98;96951.10;108811;1272;22590;-81
2024/01/23 08:07:06;;;;;;;11.90;7.30;;;;;;;3.71;85.73;96957.77;108806;1272;22682;-81
2024/01/23 08:09:40;;;;;;;11.90;6.50;;;;;;;3.69;84.91;96965.89;108803;1272;22517;-81
2024/01/23 08:12:11;;;;;;;11.90;5.90;;;;;;;3.52;84.55;96975.42;108791;1266;22541;-81
2024/01/23 08:14:45;;;;;;;13.60;6.70;;;;;;;3.23;84.18;96981.63;108766;1272;25990;-81
2024/01/23 08:17:19;;;;;;;13.80;8.40;;;;;;;3.05;84.59;96984.54;108806;1269;22627;-82
2024/01/23 08:19:53;;;;;;;13.80;9.10;;;;;;;2.93;84.51;96989.35;108772;1273;25377;-82
2024/01/23 08:22:24;;;;;;;14.00;8.80;;;;;;;2.89;84.80;96994.34;108745;1269;22521;-81
2024/01/23 08:24:58;;;;;;;13.10;8.70;;;;;;;3.02;84.95;96991.23;108811;1273;22533;-81
2024/01/23 08:27:31;;;;;;;13.40;8.40;;;;;;;3.13;84.85;96994.14;108774;1273;22524;-81
2024/01/23 08:30:10;;;;;;;12.50;8.00;;;;;;;3.40;85.07;96998.78;108679;1266;22550;-80
2024/01/23 08:32:41;;;;;;;12.90;8.60;;;;;;;3.69;85.01;96996.23;108833;1269;22517;-81
2024/01/23 08:35:15;;;;;;;13.30;9.00;;;;;;;3.91;84.84;96997.48;108748;1250;24183;-79
2024/01/23 08:37:46;;;;;;;14.10;8.80;;;;;;;4.10;84.64;96995.69;108779;1272;22636;-79
2024/01/23 08:40:17;;;;;;;13.20;9.00;;;;;;;4.32;84.13;97000.58;108800;1272;23945;-79
2024/01/23 08:42:48;;;;;;;14.40;10.60;;;;;;;4.26;83.31;97003.59;108806;1269;24929;-79
2024/01/23 08:45:22;;;;;;;13.50;8.40;;;;;;;4.18;83.22;97009.70;108796;1266;24933;-79
2024/01/23 08:47:53;;;;;;;14.00;9.60;;;;;;;4.08;83.33;97021.35;108640;1266;22973;-79
2024/01/23 08:50:24;;;;;;;12.30;8.00;;;;;;;4.26;83.70;97022.00;108714;1272;25418;-79
2024/01/23 08:53:01;;;;;;;13.30;8.90;;;;;;;4.50;83.57;97022.36;108787;1269;26482;-79
2024/01/23 08:55:32;;;;;;;14.80;9.50;;;;;;;4.48;82.88;97031.55;108801;1266;22524;-79
2024/01/23 08:58:08;;;;;;;15.00;10.40;;;;;;;4.38;82.61;97031.02;108803;1272;22665;-80
2024/01/23 09:00:39;;;;;;;14.80;9.20;;;;;;;4.34;82.59;97041.98;108762;1272;22531;-80
2024/01/23 09:03:10;;;;;;;12.00;7.10;;;;;;;4.48;82.88;97045.77;108793;1269;25435;-80
2024/01/23 09:05:42;;;;;;;11.40;8.10;;;;;;;4.53;82.74;97039.03;108729;1272;25407;-80
2024/01/23 09:08:13;;;;;;;12.80;8.30;;;;;;;4.60;82.57;97041.69;108749;1266;22673;-80
2024/01/23 09:10:49;;;;;;;12.50;8.70;;;;;;;4.63;82.43;97038.27;108771;1266;22525;-81
2024/01/23 09:13:21;;;;;;;13.20;9.00;;;;;;;4.71;82.41;97044.29;108798;1272;24370;-80
2024/01/23 09:15:54;;;;;;;13.60;8.10;;;;;;;4.68;81.99;97050.65;108798;1272;22517;-81
2024/01/23 09:18:25;;;;;;;11.20;7.10;;;;;;;4.61;81.67;97049.22;108797;1272;25297;-79
2024/01/23 09:21:02;;;;;;;15.20;9.50;;;;;;;4.50;81.67;97048.81;108716;1272;25053;-80
2024/01/23 09:23:33;;;;;;;12.40;8.10;;;;;;;4.54;81.70;97043.30;108745;1270;23807;-80
2024/01/23 09:26:07;;;;;;;13.40;8.10;;;;;;;4.52;81.47;97040.51;108750;1272;24209;-80
2024/01/23 09:28:38;;;;;;;13.10;8.30;;;;;;;4.51;81.59;97038.55;108772;1268;22512;-80
2024/01/23 09:31:14;;;;;;;12.50;8.80;;;;;;;4.53;81.58;97032.41;108722;1272;24240;-80
2024/01/23 09:33:47;;;;;;;11.90;7.60;;;;;;;4.62;81.81;97034.79;108831;1270;22523;-79
2024/01/23 09:36:24;;;;;;;12.30;8.10;;;;;;;4.67;81.67;97028.15;108789;1272;26082;-80
2024/01/23 09:38:57;;;;;;;14.70;9.10;;;;;;;4.56;80.88;97021.80;108785;1269;23692;-80
2024/01/23 09:41:34;;;;;;;14.10;9.30;;;;;;;4.41;81.03;97028.14;108723;1266;23165;-80
2024/01/23 09:44:08;;;;;;;15.20;8.10;;;;;;;4.45;81.19;97032.94;108793;1272;22536;-80
2024/01/23 09:46:39;;;;;;;14.10;9.00;;;;;;;4.41;80.92;97028.77;108787;1266;22526;-80
2024/01/23 09:49:11;;;;;;;13.00;8.50;;;;;;;4.49;81.02;97026.90;108847;1250;22517;-80
2024/01/23 09:51:49;;;;;;;13.00;8.30;;;;;;;4.40;80.70;97035.27;108793;1266;22535;-80
2024/01/23 09:54:23;;;;;;;11.80;7.80;;;;;;;4.47;80.82;97031.32;108792;1266;23376;-80
2024/01/23 09:56:55;;;;;;;12.50;8.90;;;;;;;4.50;80.61;97026.73;108820;1272;22527;-81
2024/01/23 09:59:26;;;;;;;12.00;7.60;;;;;;;4.40;80.24;97031.59;108799;1272;22549;-81
2024/01/23 10:02:01;;;;;;;13.70;8.70;;;;;;;4.29;80.05;97026.19;108733;1266;25562;-80
2024/01/23 10:04:38;;;;;;;12.30;8.00;;;;;;;4.20;80.11;97031.63;108780;1272;22517;-81
2024/01/23 10:07:09;;;;;;;14.90;8.80;;;;;;;4.14;80.03;97027.36;108743;1272;23832;-81
2024/01/23 10:09:49;;;;;;;14.50;8.90;;;;;;;4.13;80.09;97023.20;108780;1272;22529;-80
2024/01/23 10:12:24;;;;;;;15.90;9.00;;;;;;;4.14;80.22;97035.39;108806;1272;22549;-80
2024/01/23 10:14:57;;;;;;;14.10;9.20;;;;;;;4.14;80.25;97035.23;108775;1272;24241;-80
2024/01/23 10:17:30;;;;;;;14.60;9.20;;;;;;;4.10;80.12;97030.17;108806;1251;22659;-80
2024/01/23 10:20:01;;;;;;;15.40;9.60;;;;;;;4.05;80.00;97035.96;108798;1266;22547;-79
2024/01/23 10:22:35;;;;;;;17.10;10.80;;;;;;;3.98;80.04;97038.16;108761;1266;22545;-79
2024/01/23 10:25:10;;;;;;;14.30;8.90;;;;;;;3.90;80.09;97038.27;108780;1272;24161;-80
2024/01/23 10:27:43;;;;;;;15.80;8.80;;;;;;;3.86;80.19;97043.02;108785;1272;22538;-80
2024/01/23 10:30:15;;;;;;;14.80;9.30;;;;;;;3.84;80.25;97045.17;108711;1266;32335;-81
2024/01/23 10:32:49;;;;;;;14.60;9.30;;;;;;;3.87;80.27;97049.94;108761;1268;22646;-80
2024/01/23 10:35:20;;;;;;;15.70;9.70;;;;;;;3.84;80.31;97059.63;108771;1272;22987;-80
2024/01/23 10:37:52;;;;;;;16.00;9.90;;;;;;;3.74;80.27;97058.00;108739;1269;22533;-80
2024/01/23 10:40:26;;;;;;;18.50;10.20;;;;;;;3.68;80.24;97057.97;108742;1266;22526;-80
2024/01/23 10:43:07;;;;;;;16.80;10.50;;;;;;;3.64;80.52;97065.02;108734;1266;23263;-80
2024/01/23 10:45:39;;;;;;;19.00;11.10;;;;;;;3.63;80.67;97065.94;108751;1266;22527;-80
2024/01/23 10:48:12;;;;;;;17.30;9.60;;;;;;;3.51;80.70;97070.40;108758;1265;23922;-80
2024/01/23 10:50:47;;;;;;;15.90;9.90;;;;;;;3.42;80.93;97070.33;108792;1272;22541;-80
2024/01/23 10:53:30;;;;;;;15.50;9.70;;;;;;;3.37;81.36;97061.14;108722;1272;22521;-80
2024/01/23 10:56:03;;;;;;;17.20;10.10;;;;;;;3.37;81.58;97072.60;108766;1263;22532;-80
2024/01/23 10:58:44;;;;;;;12.70;6.40;;;;;;;3.46;81.75;97079.30;108729;1265;25326;-81
2024/01/23 11:01:17;;;;;;;18.00;10.00;;;;;;;3.51;81.93;97078.05;108781;1269;25021;-81
2024/01/23 11:03:49;;;;;;;20.30;9.20;;;;;;;3.57;82.06;97086.10;108767;1266;23964;-81
2024/01/23 11:06:25;;;;;;;15.60;8.10;;;;;;;3.58;82.03;97087.86;108766;1273;22545;-81
2024/01/23 11:09:07;;;;;;;17.10;9.60;;;;;;;3.52;82.18;97088.86;108752;1266;22513;-83
2024/01/23 11:11:50;;;;;;;14.80;9.10;;;;;;;3.54;82.27;97092.30;108754;1266;22509;-81
2024/01/23 11:14:38;;;;;;;14.90;6.80;;;;;;;3.63;82.35;97085.41;108797;1273;24193;-81
2024/01/23 11:17:13;;;;;;;13.60;7.40;;;;;;;3.56;82.13;97084.81;108783;1269;22543;-82
2024/01/23 11:19:47;;;;;;;15.90;10.20;;;;;;;3.46;82.30;97082.33;108780;1273;22584;-80
2024/01/23 11:22:26;;;;;;;16.10;7.80;;;;;;;3.36;82.31;97088.25;108780;1272;22516;-81
2024/01/23 11:25:00;;;;;;;14.50;8.40;;;;;;;3.27;82.51;97090.10;108751;1273;22524;-81
2024/01/23 11:27:33;;;;;;;18.30;10.40;;;;;;;3.18;82.95;97090.31;108781;1266;22521;-81
2024/01/23 11:30:13;;;;;;;15.50;9.50;;;;;;;3.17;83.19;97091.02;108809;1265;22524;-80
2024/01/23 11:32:47;;;;;;;18.80;8.60;;;;;;;3.26;83.33;97085.40;108805;1273;22529;-81
2024/01/23 11:35:21;;;;;;;15.20;8.20;;;;;;;3.30;83.50;97081.07;108778;1272;24304;-81
2024/01/23 11:37:54;;;;;;;15.10;8.60;;;;;;;3.40;83.47;97086.00;108799;1272;22586;-81
2024/01/23 11:40:42;;;;;;;13.00;8.50;;;;;;;3.44;83.40;97084.23;108715;1272;22527;-81
2024/01/23 11:43:33;;;;;;;15.70;8.70;;;;;;;3.54;83.57;97086.22;108774;1266;22498;-81
2024/01/23 11:46:14;;;;;;;16.40;9.90;;;;;;;3.61;83.48;97094.16;108774;1269;22523;-80
2024/01/23 11:48:50;;;;;;;14.10;9.00;;;;;;;3.65;83.53;97091.63;108791;1266;22538;-81
2024/01/23 11:51:24;;;;;;;14.80;8.90;;;;;;;3.67;83.49;97089.73;108859;1270;22545;-80
2024/01/23 11:53:59;;;;;;;15.30;8.90;;;;;;;3.69;83.37;97092.98;108833;1269;22504;-81
2024/01/23 11:56:32;;;;;;;15.20;9.00;;;;;;;3.72;83.60;97099.90;108766;1259;22519;-81
2024/01/23 11:59:04;;;;;;;16.50;9.60;;;;;;;3.73;83.41;97102.27;108814;1250;22635;-81